createdAt,value
2022-10-08T00:09:29.277Z,7.66
2022-10-08T00:19:33.839Z,7.75
2022-10-08T00:29:37.601Z,7.81
2022-10-08T00:39:41.791Z,7.82
2022-10-08T00:49:51.695Z,7.89
2022-10-08T00:59:56.820Z,8.05
2022-10-08T01:10:23.025Z,8.02
2022-10-08T01:20:32.683Z,7.99
2022-10-08T01:30:40.708Z,7.99
2022-10-08T01:40:47.583Z,7.93
2022-10-08T01:50:51.248Z,8.03
2022-10-08T02:00:57.291Z,7.98
2022-10-08T02:11:01.052Z,7.93
2022-10-08T02:21:34.797Z,7.62
2022-10-08T02:31:42.064Z,7.54
2022-10-08T02:41:52.359Z,7.41
2022-10-08T02:52:02.378Z,7.47
2022-10-08T03:02:06.691Z,7.53
2022-10-08T03:12:10.824Z,7.48
2022-10-08T03:22:14.489Z,7.38
2022-10-08T03:32:18.051Z,7.18
2022-10-08T03:42:21.718Z,6.96
2022-10-08T03:52:25.397Z,6.93
2022-10-08T04:02:29.219Z,6.92
2022-10-08T04:12:32.916Z,6.76
2022-10-08T04:22:36.405Z,6.72
2022-10-08T04:32:40.270Z,6.55
2022-10-08T04:42:44.692Z,6.58
2022-10-08T04:52:49.443Z,6.60
2022-10-08T05:02:53.752Z,6.78
2022-10-08T05:12:57.583Z,6.88
2022-10-08T05:23:01.567Z,7.06
2022-10-08T05:33:05.435Z,7.35
2022-10-08T05:43:09.417Z,7.51
2022-10-08T05:53:13.420Z,7.57
2022-10-08T06:03:17.160Z,7.66
2022-10-08T06:13:22.130Z,7.86
2022-10-08T06:23:25.922Z,8.33
2022-10-08T06:33:30.383Z,8.93
2022-10-08T06:43:34.766Z,9.98
2022-10-08T06:53:39.680Z,11.06
2022-10-08T07:03:44.585Z,12.08
2022-10-08T07:13:48.844Z,12.92
2022-10-08T07:23:54.398Z,13.58
2022-10-08T07:34:00.361Z,14.18
2022-10-08T07:44:06.066Z,14.58
2022-10-08T07:54:14.951Z,14.79
2022-10-08T08:04:18.727Z,15.01
2022-10-08T08:14:22.591Z,15.32
2022-10-08T08:24:26.057Z,15.66
2022-10-08T08:34:30.842Z,15.98
2022-10-08T08:44:38.908Z,16.17
2022-10-08T08:54:46.674Z,16.40
2022-10-08T09:04:57.488Z,16.64
2022-10-08T09:15:02.388Z,16.92
2022-10-08T09:25:20.815Z,17.20
2022-10-08T09:35:25.802Z,17.55
2022-10-08T09:45:39.274Z,17.73
2022-10-08T09:55:52.458Z,17.93
2022-10-08T10:05:59.597Z,18.20
2022-10-08T10:16:26.350Z,18.44
2022-10-08T10:26:36.324Z,18.65
2022-10-08T10:37:02.699Z,18.87
2022-10-08T10:47:09.539Z,19.12
2022-10-08T10:57:35.508Z,19.35
2022-10-08T11:08:08.067Z,19.55
2022-10-08T11:18:24.316Z,19.69
2022-10-08T11:29:01.334Z,19.75
2022-10-08T11:39:19.404Z,19.88
2022-10-08T11:49:25.684Z,20.02
2022-10-08T11:59:37.174Z,20.14
2022-10-08T12:10:05.520Z,20.28
2022-10-08T12:20:23.321Z,20.39
2022-10-08T12:30:46.810Z,20.43
2022-10-08T12:41:01.133Z,20.46
2022-10-08T12:51:22.212Z,20.50
2022-10-08T13:01:26.979Z,20.44
2022-10-08T13:11:31.026Z,20.46
2022-10-08T13:21:38.255Z,20.51
2022-10-08T13:31:42.243Z,20.56
2022-10-08T13:41:52.435Z,20.57
2022-10-08T13:51:59.436Z,20.54
2022-10-08T14:02:03.950Z,20.41
2022-10-08T14:12:09.685Z,20.25
2022-10-08T14:22:15.062Z,20.05
2022-10-08T14:32:18.905Z,19.80
2022-10-08T14:42:22.462Z,19.50
2022-10-08T14:52:26.591Z,19.24
2022-10-08T15:02:30.717Z,19.05
2022-10-08T15:12:35.535Z,18.84
2022-10-08T15:22:39.487Z,18.49
2022-10-08T15:32:43.357Z,18.07
2022-10-08T15:42:52.790Z,17.60
2022-10-08T15:52:57.068Z,17.20
2022-10-08T16:03:01.001Z,16.67
2022-10-08T16:13:05.185Z,16.11
2022-10-08T16:23:09.885Z,15.64
2022-10-08T16:33:13.958Z,15.27
2022-10-08T16:43:17.708Z,15.01
2022-10-08T16:53:21.599Z,14.82
2022-10-08T17:03:25.353Z,14.65
2022-10-08T17:13:29.238Z,14.51
2022-10-08T17:23:37.396Z,14.39
2022-10-08T17:33:43.231Z,14.25
2022-10-08T17:43:48.642Z,14.01
2022-10-08T17:53:54.837Z,13.79
2022-10-08T18:04:04.986Z,13.52
2022-10-08T18:14:09.224Z,13.34
2022-10-08T18:24:14.332Z,13.15
2022-10-08T18:34:19.291Z,12.74
2022-10-08T18:44:25.951Z,12.39
2022-10-08T18:54:33.310Z,12.09
2022-10-08T19:04:40.564Z,11.70
2022-10-08T19:14:45.027Z,11.50
2022-10-08T19:24:49.632Z,11.31
2022-10-08T19:34:54.164Z,11.18
2022-10-08T19:44:59.121Z,11.09
2022-10-08T19:55:06.285Z,11.04
2022-10-08T20:05:10.475Z,10.88
2022-10-08T20:15:14.602Z,10.85
2022-10-08T20:25:20.838Z,10.81
2022-10-08T20:35:24.817Z,10.69
2022-10-08T20:45:28.894Z,10.69
2022-10-08T20:55:32.864Z,10.83
2022-10-08T21:05:43.387Z,10.98
2022-10-08T21:15:49.174Z,11.25
2022-10-08T21:26:14.673Z,11.53
2022-10-08T21:36:27.431Z,11.70
2022-10-08T21:46:34.317Z,11.78
2022-10-08T21:56:39.835Z,11.95
2022-10-08T22:06:46.667Z,12.11
2022-10-08T22:16:51.007Z,12.28
2022-10-08T22:26:54.882Z,12.24
2022-10-08T22:36:58.793Z,12.26
2022-10-08T22:47:02.535Z,12.39
2022-10-08T22:57:06.264Z,12.54
2022-10-08T23:07:10.039Z,12.63
2022-10-08T23:17:13.709Z,12.71
2022-10-08T23:27:17.186Z,12.72
2022-10-08T23:37:20.644Z,12.80
2022-10-08T23:47:24.507Z,12.96
2022-10-08T23:57:28.171Z,13.12
